Time;durP1;ratioP1;P1;durP2;ratioP2;P2;SDS_P1;SDS_P2;PMS_P1;PMS_P2;Temp;Humidity;BMP_temperature;BMP_pressure;BME280_temperature;BME280_humidity;BME280_pressure;Samples;Min_cycle;Max_cycle;Signal;HPM_P1;HPM_P2
2022/06/25 00:02:16;;;;;;;;;;;14.70;99.90;;;;;;5095150;28;19908;-76
2022/06/25 00:07:27;;;;;;;;;;;14.90;99.90;;;;;;5095045;28;19934;-75
2022/06/25 00:09:54;;;;;;;;;;;14.90;99.90;;;;;;5093445;28;19954;-74
2022/06/25 00:12:32;;;;;;;;;;;15.00;99.90;;;;;;5094798;28;19944;-75
2022/06/25 00:15:00;;;;;;;;;;;15.10;99.90;;;;;;5094986;28;19916;-74
2022/06/25 00:17:26;;;;;;;;;;;15.10;99.90;;;;;;5094771;28;19908;-75
2022/06/25 00:19:53;;;;;;;;;;;15.20;99.90;;;;;;5094504;28;19908;-75
2022/06/25 00:22:20;;;;;;;;;;;15.30;99.90;;;;;;5094778;28;19908;-74
2022/06/25 00:24:47;;;;;;;;;;;15.30;99.90;;;;;;5094820;28;19908;-75
2022/06/25 00:27:13;;;;;;;;;;;15.30;99.90;;;;;;5094747;28;19915;-75
2022/06/25 00:29:40;;;;;;;;;;;15.30;99.90;;;;;;5094372;28;19923;-75
2022/06/25 00:32:09;;;;;;;;;;;15.40;99.90;;;;;;5094655;28;19908;-75
2022/06/25 00:34:37;;;;;;;;;;;15.30;99.90;;;;;;5094466;28;19919;-74
2022/06/25 00:37:04;;;;;;;;;;;15.40;99.90;;;;;;5094528;28;19919;-76
2022/06/25 00:39:30;;;;;;;;;;;15.60;99.90;;;;;;5094179;28;20361;-74
2022/06/25 00:41:57;;;;;;;;;;;15.60;99.90;;;;;;5094095;28;19915;-76
2022/06/25 00:44:25;;;;;;;;;;;15.70;99.90;;;;;;5093019;28;20321;-76
2022/06/25 00:46:52;;;;;;;;;;;15.80;99.90;;;;;;5094570;28;19965;-75
2022/06/25 00:49:19;;;;;;;;;;;15.70;99.90;;;;;;5094232;28;19908;-76
2022/06/25 00:51:48;;;;;;;;;;;15.70;99.90;;;;;;5093971;28;19965;-75
2022/06/25 00:54:16;;;;;;;;;;;15.70;99.90;;;;;;5093867;28;19928;-76
2022/06/25 00:56:47;;;;;;;;;;;15.70;99.90;;;;;;5093803;28;19951;-75
2022/06/25 00:59:15;;;;;;;;;;;15.90;99.90;;;;;;5094037;28;20464;-75
2022/06/25 01:01:42;;;;;;;;;;;15.90;99.90;;;;;;5093721;28;20381;-76
2022/06/25 01:04:09;;;;;;;;;;;16.20;99.90;;;;;;5093498;28;19957;-75
2022/06/25 01:06:36;;;;;;;;;;;16.40;99.90;;;;;;5093906;28;19908;-75
2022/06/25 01:09:03;;;;;;;;;;;16.50;99.90;;;;;;5093937;28;19908;-77
2022/06/25 01:11:30;;;;;;;;;;;16.70;99.90;;;;;;5093677;28;19908;-75
2022/06/25 01:13:57;;;;;;;;;;;17.00;99.90;;;;;;5093645;28;19909;-76
2022/06/25 01:16:23;;;;;;;;;;;17.20;99.90;;;;;;5093867;28;19908;-76
2022/06/25 01:18:50;;;;;;;;;;;17.30;99.90;;;;;;5093730;28;20373;-75
2022/06/25 01:21:17;;;;;;;;;;;17.40;99.90;;;;;;5093693;28;20012;-76
2022/06/25 01:23:43;;;;;;;;;;;17.40;99.90;;;;;;5092262;28;19908;-76
2022/06/25 01:26:10;;;;;;;;;;;17.50;99.90;;;;;;5092238;28;19908;-76
2022/06/25 01:28:37;;;;;;;;;;;17.60;99.90;;;;;;5093481;28;20346;-76
2022/06/25 01:31:04;;;;;;;;;;;17.50;99.90;;;;;;5093608;28;19998;-75
2022/06/25 01:33:31;;;;;;;;;;;17.40;99.90;;;;;;5093200;28;19916;-75
2022/06/25 01:35:57;;;;;;;;;;;17.30;99.90;;;;;;5093387;28;20267;-76
2022/06/25 01:38:24;;;;;;;;;;;17.20;99.90;;;;;;5126184;27;19908;-76
2022/06/25 01:40:51;;;;;;;;;;;17.20;99.90;;;;;;5093491;28;19908;-76
2022/06/25 01:43:18;;;;;;;;;;;17.20;99.90;;;;;;5093530;28;19962;-76
2022/06/25 01:45:45;;;;;;;;;;;17.20;99.90;;;;;;5093020;28;19956;-76
2022/06/25 01:48:11;;;;;;;;;;;17.20;99.90;;;;;;5093396;28;19912;-75
2022/06/25 01:50:38;;;;;;;;;;;17.20;99.90;;;;;;5093419;28;19915;-75
2022/06/25 01:53:05;;;;;;;;;;;17.20;99.90;;;;;;5093270;28;19940;-76
2022/06/25 01:55:32;;;;;;;;;;;17.20;99.90;;;;;;5092856;28;20363;-76
2022/06/25 01:57:59;;;;;;;;;;;17.10;99.90;;;;;;5093352;28;20371;-76
2022/06/25 02:00:27;;;;;;;;;;;17.20;99.90;;;;;;5093211;28;19908;-76
2022/06/25 02:02:54;;;;;;;;;;;17.20;99.90;;;;;;5093304;28;19912;-76
2022/06/25 02:06:07;;;;;;;;;;;17.30;99.90;;;;;;5092971;28;19912;-77
2022/06/25 02:08:10;;;;;;;;;;;17.20;99.90;;;;;;5085626;28;20354;-76
2022/06/25 02:10:37;;;;;;;;;;;17.30;99.90;;;;;;5092842;28;20270;-76
2022/06/25 02:13:04;;;;;;;;;;;17.40;99.90;;;;;;5093122;28;19915;-77
2022/06/25 02:15:31;;;;;;;;;;;17.30;99.90;;;;;;5092754;28;20049;-77
2022/06/25 02:17:57;;;;;;;;;;;17.30;99.90;;;;;;5097195;28;19908;-77
2022/06/25 02:20:24;;;;;;;;;;;17.30;99.90;;;;;;5097080;28;20273;-75
2022/06/25 02:22:51;;;;;;;;;;;17.20;99.90;;;;;;5097044;28;19988;-75
2022/06/25 02:25:18;;;;;;;;;;;17.30;99.90;;;;;;5096919;28;19915;-77
2022/06/25 02:27:45;;;;;;;;;;;17.20;99.90;;;;;;5096875;28;19922;-77
2022/06/25 02:30:12;;;;;;;;;;;17.20;99.90;;;;;;5096846;28;19912;-77
2022/06/25 02:32:42;;;;;;;;;;;17.30;99.90;;;;;;5096981;28;19909;-76
2022/06/25 02:35:09;;;;;;;;;;;17.20;99.90;;;;;;5096821;28;19916;-75
2022/06/25 02:37:35;;;;;;;;;;;17.20;99.90;;;;;;5096575;28;19915;-73
2022/06/25 02:40:03;;;;;;;;;;;17.30;99.90;;;;;;5096706;28;19908;-75
2022/06/25 02:42:36;;;;;;;;;;;17.30;99.90;;;;;;5096701;28;19908;-74
2022/06/25 02:45:03;;;;;;;;;;;17.30;99.90;;;;;;5096877;28;19908;-75
2022/06/25 02:47:30;;;;;;;;;;;17.40;99.90;;;;;;5096382;28;19983;-73
2022/06/25 02:49:57;;;;;;;;;;;17.30;99.90;;;;;;5096656;28;19915;-75
2022/06/25 02:52:24;;;;;;;;;;;17.30;99.90;;;;;;5096680;28;19908;-74
2022/06/25 02:54:50;;;;;;;;;;;17.40;99.90;;;;;;5095905;28;20011;-75
2022/06/25 03:00:02;;;;;;;;;;;17.50;99.90;;;;;;5096209;28;19980;-75
2022/06/25 03:02:29;;;;;;;;;;;17.50;99.90;;;;;;5096044;28;20025;-78
2022/06/25 03:04:56;;;;;;;;;;;17.50;99.90;;;;;;5096050;28;20004;-74
2022/06/25 03:07:22;;;;;;;;;;;17.60;99.90;;;;;;5096042;28;19940;-74
2022/06/25 03:09:49;;;;;;;;;;;17.50;99.90;;;;;;5095600;28;19918;-75
2022/06/25 03:12:16;;;;;;;;;;;17.60;99.90;;;;;;5096259;28;20322;-77
2022/06/25 03:14:43;;;;;;;;;;;17.50;99.90;;;;;;5095969;28;19916;-75
2022/06/25 03:17:09;;;;;;;;;;;17.50;99.90;;;;;;5095850;28;19909;-76
2022/06/25 03:19:36;;;;;;;;;;;17.40;99.90;;;;;;5095874;28;19930;-73
2022/06/25 03:22:03;;;;;;;;;;;17.50;99.90;;;;;;5095865;28;19908;-76
2022/06/25 03:24:30;;;;;;;;;;;17.50;99.90;;;;;;5095701;28;19908;-77
2022/06/25 03:26:57;;;;;;;;;;;17.50;99.90;;;;;;5095276;28;19908;-75
2022/06/25 03:29:23;;;;;;;;;;;17.50;99.90;;;;;;5095723;28;20282;-76
2022/06/25 03:31:50;;;;;;;;;;;17.50;99.90;;;;;;5095422;28;20227;-74
2022/06/25 03:34:17;;;;;;;;;;;17.60;99.90;;;;;;5095533;28;19974;-74
2022/06/25 03:36:46;;;;;;;;;;;17.70;99.90;;;;;;5095744;28;20384;-76
2022/06/25 03:39:13;;;;;;;;;;;17.60;99.90;;;;;;5095384;28;19974;-76
2022/06/25 03:41:39;;;;;;;;;;;17.60;99.90;;;;;;5095314;28;19931;-75
2022/06/25 03:44:08;;;;;;;;;;;17.60;99.90;;;;;;5095404;28;19915;-75
2022/06/25 03:46:35;;;;;;;;;;;17.60;99.90;;;;;;5095542;28;19908;-76
2022/06/25 03:49:03;;;;;;;;;;;17.60;99.90;;;;;;5095432;28;19909;-75
2022/06/25 03:51:30;;;;;;;;;;;17.60;99.90;;;;;;5095413;28;20020;-74
2022/06/25 03:53:57;;;;;;;;;;;17.50;99.90;;;;;;5095178;28;19927;-75
2022/06/25 03:56:24;;;;;;;;;;;17.40;99.90;;;;;;5095443;28;19916;-74
2022/06/25 03:58:51;;;;;;;;;;;17.30;99.90;;;;;;5095210;28;19908;-75
2022/06/25 04:01:18;;;;;;;;;;;17.20;99.90;;;;;;5095049;28;19931;-76
2022/06/25 04:03:45;;;;;;;;;;;17.10;99.90;;;;;;5094864;28;20350;-75
2022/06/25 04:06:12;;;;;;;;;;;17.20;99.90;;;;;;5095202;28;19912;-76
2022/06/25 04:08:39;;;;;;;;;;;17.20;99.90;;;;;;5093613;28;20317;-74
2022/06/25 04:11:05;;;;;;;;;;;17.30;99.90;;;;;;5095132;28;19908;-75
2022/06/25 04:13:32;;;;;;;;;;;17.30;99.90;;;;;;5094928;28;19908;-76
2022/06/25 04:15:59;;;;;;;;;;;17.30;99.90;;;;;;5095010;28;19916;-73
2022/06/25 04:18:25;;;;;;;;;;;17.20;99.90;;;;;;5094910;28;19908;-75
2022/06/25 04:20:52;;;;;;;;;;;17.20;99.90;;;;;;5094908;28;19908;-76
2022/06/25 04:23:19;;;;;;;;;;;17.10;99.90;;;;;;5094792;28;20046;-75
2022/06/25 04:25:46;;;;;;;;;;;17.00;99.90;;;;;;5094388;28;20382;-76
2022/06/25 04:30:57;;;;;;;;;;;17.10;99.90;;;;;;5094740;28;19977;-74
2022/06/25 04:33:23;;;;;;;;;;;17.00;99.90;;;;;;5094520;28;19916;-75
2022/06/25 04:35:50;;;;;;;;;;;17.00;99.90;;;;;;5094326;28;20259;-73
2022/06/25 04:38:17;;;;;;;;;;;16.90;99.90;;;;;;5094113;28;20400;-73
2022/06/25 04:40:44;;;;;;;;;;;16.90;99.90;;;;;;5094335;28;19909;-73
2022/06/25 04:43:10;;;;;;;;;;;17.00;99.90;;;;;;5094598;28;19950;-75
2022/06/25 04:45:37;;;;;;;;;;;17.00;99.90;;;;;;5094763;28;19909;-73
2022/06/25 04:48:04;;;;;;;;;;;17.10;99.90;;;;;;5094342;28;19908;-74
2022/06/25 04:50:31;;;;;;;;;;;17.10;99.90;;;;;;5094161;28;20052;-75
2022/06/25 04:52:58;;;;;;;;;;;17.20;99.90;;;;;;5094304;28;19917;-74
2022/06/25 04:55:24;;;;;;;;;;;17.20;99.90;;;;;;5093781;28;20282;-74
2022/06/25 04:57:51;;;;;;;;;;;17.30;99.90;;;;;;5093986;28;19908;-76
2022/06/25 05:00:18;;;;;;;;;;;17.20;99.90;;;;;;5094161;28;19909;-76
2022/06/25 05:02:45;;;;;;;;;;;17.20;99.90;;;;;;5094002;28;19908;-76
2022/06/25 05:05:11;;;;;;;;;;;17.30;99.90;;;;;;5094015;28;19919;-75
2022/06/25 05:07:38;;;;;;;;;;;17.40;99.90;;;;;;5093844;28;19908;-76
2022/06/25 05:10:05;;;;;;;;;;;17.50;99.90;;;;;;5093872;28;20014;-75
2022/06/25 05:15:16;;;;;;;;;;;17.60;99.90;;;;;;5093908;28;19962;-74
2022/06/25 05:17:43;;;;;;;;;;;17.70;99.90;;;;;;5093740;28;19915;-74
2022/06/25 05:20:11;;;;;;;;;;;17.70;99.90;;;;;;5093715;28;19908;-73
2022/06/25 05:22:37;;;;;;;;;;;17.70;99.90;;;;;;5093692;28;19908;-74
2022/06/25 05:25:04;;;;;;;;;;;17.70;99.90;;;;;;5093582;28;19930;-75
2022/06/25 05:27:31;;;;;;;;;;;17.70;99.90;;;;;;5093514;28;19908;-75
2022/06/25 05:29:58;;;;;;;;;;;17.70;99.90;;;;;;5093607;28;19908;-75
2022/06/25 05:32:25;;;;;;;;;;;17.70;99.90;;;;;;5093522;28;20104;-76
2022/06/25 05:34:51;;;;;;;;;;;17.70;99.90;;;;;;5093540;28;20011;-75
2022/06/25 05:37:18;;;;;;;;;;;17.80;99.90;;;;;;5093544;28;19996;-74
2022/06/25 05:39:45;;;;;;;;;;;17.70;99.90;;;;;;5092974;28;19908;-74
2022/06/25 05:42:11;;;;;;;;;;;17.70;99.90;;;;;;5093396;28;19908;-75
2022/06/25 05:44:38;;;;;;;;;;;17.60;99.90;;;;;;5093477;28;19909;-76
2022/06/25 05:47:05;;;;;;;;;;;17.50;99.90;;;;;;5093516;28;19915;-75
2022/06/25 05:49:31;;;;;;;;;;;17.50;99.90;;;;;;5092817;28;19944;-74
2022/06/25 05:51:58;;;;;;;;;;;17.50;99.90;;;;;;5093490;28;19954;-75
2022/06/25 05:54:25;;;;;;;;;;;17.50;99.90;;;;;;5092814;28;19925;-74
2022/06/25 05:56:51;;;;;;;;;;;17.50;99.90;;;;;;5093284;28;19908;-74
2022/06/25 05:59:18;;;;;;;;;;;17.50;99.90;;;;;;5093343;28;20278;-75
2022/06/25 06:01:45;;;;;;;;;;;17.50;99.90;;;;;;5093121;28;19908;-75
2022/06/25 06:04:11;;;;;;;;;;;17.50;99.90;;;;;;5093240;28;20011;-75
2022/06/25 06:06:38;;;;;;;;;;;17.40;99.90;;;;;;5093273;28;19915;-74
2022/06/25 06:09:05;;;;;;;;;;;17.30;99.90;;;;;;5093104;28;20354;-75
2022/06/25 06:11:32;;;;;;;;;;;17.30;99.90;;;;;;5093039;28;19912;-74
2022/06/25 06:13:58;;;;;;;;;;;17.20;99.90;;;;;;5093076;28;19931;-77
2022/06/25 06:16:25;;;;;;;;;;;17.10;99.90;;;;;;5093087;28;19950;-74
2022/06/25 06:18:52;;;;;;;;;;;17.00;99.90;;;;;;5093129;28;19912;-75
2022/06/25 06:21:19;;;;;;;;;;;16.90;99.90;;;;;;5093044;28;19908;-76
2022/06/25 06:23:46;;;;;;;;;;;16.70;99.90;;;;;;5092800;28;19999;-74
2022/06/25 06:26:12;;;;;;;;;;;16.50;99.90;;;;;;5093054;28;20273;-74
2022/06/25 06:28:39;;;;;;;;;;;16.50;99.90;;;;;;5093038;28;19961;-75
2022/06/25 06:31:06;;;;;;;;;;;16.40;99.90;;;;;;5093062;28;19908;-74
2022/06/25 06:33:32;;;;;;;;;;;16.40;99.90;;;;;;5092870;28;20375;-75
2022/06/25 06:35:59;;;;;;;;;;;16.60;99.90;;;;;;5092919;28;19924;-75
2022/06/25 06:38:26;;;;;;;;;;;16.50;99.90;;;;;;5092903;28;19908;-74
2022/06/25 06:40:52;;;;;;;;;;;16.50;99.90;;;;;;5092882;28;19908;-74
2022/06/25 06:43:19;;;;;;;;;;;16.50;99.90;;;;;;5092663;28;19930;-75
2022/06/25 06:45:46;;;;;;;;;;;16.50;99.90;;;;;;5092633;28;19915;-74
2022/06/25 06:48:12;;;;;;;;;;;16.50;99.90;;;;;;5092838;28;20370;-74
2022/06/25 06:50:39;;;;;;;;;;;16.50;99.90;;;;;;5092834;28;19908;-74
2022/06/25 06:53:06;;;;;;;;;;;16.40;99.90;;;;;;5092745;28;20070;-74
2022/06/25 06:55:32;;;;;;;;;;;16.50;99.90;;;;;;5092451;28;19924;-74
2022/06/25 06:58:00;;;;;;;;;;;16.50;99.90;;;;;;5092772;28;19908;-74
2022/06/25 07:00:26;;;;;;;;;;;16.40;99.90;;;;;;5092659;28;19908;-75
2022/06/25 07:02:53;;;;;;;;;;;16.30;99.90;;;;;;5094907;28;20351;-74
2022/06/25 07:05:20;;;;;;;;;;;16.30;99.90;;;;;;5096308;28;19908;-74
2022/06/25 07:07:49;;;;;;;;;;;16.30;99.90;;;;;;5096025;28;19964;-76
2022/06/25 07:10:16;;;;;;;;;;;16.20;99.90;;;;;;5096454;28;19909;-75
2022/06/25 07:12:43;;;;;;;;;;;16.10;99.90;;;;;;5096102;28;19908;-75
2022/06/25 07:15:10;;;;;;;;;;;16.10;99.90;;;;;;5096190;28;20363;-76
2022/06/25 07:17:37;;;;;;;;;;;16.10;99.90;;;;;;5095851;28;19998;-76
2022/06/25 07:20:04;;;;;;;;;;;16.00;99.90;;;;;;5096010;28;19908;-75
2022/06/25 07:22:30;;;;;;;;;;;15.90;99.90;;;;;;5095991;28;19915;-75
2022/06/25 07:24:57;;;;;;;;;;;15.80;99.90;;;;;;5095823;28;19950;-75
2022/06/25 07:27:24;;;;;;;;;;;15.70;99.90;;;;;;5096033;28;19968;-74
2022/06/25 07:29:51;;;;;;;;;;;15.70;99.90;;;;;;5095718;28;19912;-76
2022/06/25 07:32:17;;;;;;;;;;;15.60;99.90;;;;;;5095546;28;20012;-75
2022/06/25 07:34:44;;;;;;;;;;;15.60;99.90;;;;;;5095731;28;20259;-74
2022/06/25 07:37:12;;;;;;;;;;;15.60;99.90;;;;;;5095625;28;19931;-75
2022/06/25 07:39:39;;;;;;;;;;;15.50;99.90;;;;;;5095266;28;19908;-76
2022/06/25 07:42:06;;;;;;;;;;;15.60;99.90;;;;;;5095737;28;19951;-75
2022/06/25 07:44:33;;;;;;;;;;;15.50;99.90;;;;;;5095548;28;20373;-75
2022/06/25 07:46:59;;;;;;;;;;;15.60;99.90;;;;;;5095504;28;20269;-75
2022/06/25 07:49:26;;;;;;;;;;;15.60;99.90;;;;;;5092930;28;20316;-75
2022/06/25 07:52:03;;;;;;;;;;;15.70;99.90;;;;;;5093272;28;19958;-75
2022/06/25 07:54:30;;;;;;;;;;;15.70;99.90;;;;;;5091627;28;19931;-75
2022/06/25 07:56:58;;;;;;;;;;;15.80;99.90;;;;;;5093237;28;19908;-75
2022/06/25 07:59:24;;;;;;;;;;;15.70;99.90;;;;;;5093308;28;19912;-76
2022/06/25 08:01:51;;;;;;;;;;;15.70;99.90;;;;;;5092578;28;19919;-75
2022/06/25 08:04:18;;;;;;;;;;;15.70;99.90;;;;;;5093146;28;19914;-75
2022/06/25 08:06:46;;;;;;;;;;;15.70;99.90;;;;;;5093167;28;19912;-76
2022/06/25 08:09:12;;;;;;;;;;;15.70;99.90;;;;;;5092779;28;19930;-76
2022/06/25 08:11:39;;;;;;;;;;;15.60;99.90;;;;;;5092740;28;19986;-75
2022/06/25 08:14:06;;;;;;;;;;;15.60;99.90;;;;;;5092322;28;19973;-75
2022/06/25 08:16:33;;;;;;;;;;;15.60;99.90;;;;;;5093007;28;19912;-76
2022/06/25 08:19:00;;;;;;;;;;;15.50;99.90;;;;;;5092825;28;20333;-75
2022/06/25 08:21:26;;;;;;;;;;;15.40;99.90;;;;;;5092882;28;19920;-75
2022/06/25 08:23:53;;;;;;;;;;;15.30;99.90;;;;;;5092532;28;20619;-74
2022/06/25 08:26:20;;;;;;;;;;;15.20;99.90;;;;;;5092817;28;19930;-75
2022/06/25 08:28:47;;;;;;;;;;;15.20;99.90;;;;;;5092337;28;19908;-75
2022/06/25 08:31:14;;;;;;;;;;;15.20;99.90;;;;;;5092576;28;19908;-75
2022/06/25 08:33:40;;;;;;;;;;;15.20;99.90;;;;;;5092312;28;19944;-76
2022/06/25 08:36:07;;;;;;;;;;;15.30;99.90;;;;;;5092449;28;20266;-75
2022/06/25 08:38:34;;;;;;;;;;;15.40;99.90;;;;;;5092437;28;19912;-75
2022/06/25 08:41:01;;;;;;;;;;;15.30;99.90;;;;;;5092118;28;19962;-75
2022/06/25 08:43:29;;;;;;;;;;;15.30;99.90;;;;;;5092357;28;19908;-76
2022/06/25 08:45:56;;;;;;;;;;;15.30;99.90;;;;;;5092296;28;19908;-75
2022/06/25 08:48:23;;;;;;;;;;;15.20;99.90;;;;;;5092183;28;20321;-76
2022/06/25 08:50:51;;;;;;;;;;;15.20;99.90;;;;;;5092346;28;19915;-75
2022/06/25 08:53:18;;;;;;;;;;;15.10;99.90;;;;;;5091741;28;19959;-75
2022/06/25 08:55:46;;;;;;;;;;;15.10;99.90;;;;;;5091685;28;19987;-75
2022/06/25 08:58:14;;;;;;;;;;;15.00;99.90;;;;;;5092204;28;19961;-76
2022/06/25 09:00:42;;;;;;;;;;;15.00;99.90;;;;;;5092100;28;19908;-76
2022/06/25 09:03:09;;;;;;;;;;;14.90;99.90;;;;;;5092077;28;19908;-75
2022/06/25 09:05:43;;;;;;;;;;;14.90;99.90;;;;;;5093264;28;19950;-76
2022/06/25 09:08:11;;;;;;;;;;;14.80;99.90;;;;;;5093718;28;19914;-76
2022/06/25 09:10:38;;;;;;;;;;;14.90;99.90;;;;;;5094101;28;19960;-76
2022/06/25 09:13:06;;;;;;;;;;;14.80;99.90;;;;;;5094075;28;20278;-75
2022/06/25 09:15:34;;;;;;;;;;;14.80;99.90;;;;;;5093643;28;19916;-76
2022/06/25 09:18:14;;;;;;;;;;;14.80;99.90;;;;;;5093893;28;20040;-76
2022/06/25 09:20:59;;;;;;;;;;;14.80;99.90;;;;;;5093759;28;19957;-75
2022/06/25 09:23:27;;;;;;;;;;;14.90;99.90;;;;;;5093422;28;19996;-76
2022/06/25 09:26:20;;;;;;;;;;;14.80;99.90;;;;;;5093043;28;19977;-76
2022/06/25 09:28:46;;;;;;;;;;;14.80;99.90;;;;;;5092611;28;19912;-74
2022/06/25 09:31:33;;;;;;;;;;;14.80;99.90;;;;;;5093593;28;20334;-76
2022/06/25 09:34:03;;;;;;;;;;;14.80;99.90;;;;;;5093713;28;19954;-75
2022/06/25 09:36:30;;;;;;;;;;;14.90;99.90;;;;;;5093477;28;19923;-76
2022/06/25 09:38:57;;;;;;;;;;;14.90;99.90;;;;;;5093411;28;20346;-76
2022/06/25 09:41:24;;;;;;;;;;;14.90;99.90;;;;;;5093412;28;19909;-75
2022/06/25 09:43:52;;;;;;;;;;;14.90;99.90;;;;;;5093126;28;19915;-75
2022/06/25 09:46:18;;;;;;;;;;;14.90;99.90;;;;;;5093363;28;19909;-75
2022/06/25 09:48:45;;;;;;;;;;;14.90;99.90;;;;;;5093460;28;19952;-76
2022/06/25 09:51:12;;;;;;;;;;;14.90;99.90;;;;;;5093480;28;20377;-76
2022/06/25 09:53:52;;;;;;;;;;;14.80;99.90;;;;;;5092815;28;20313;-76
2022/06/25 09:56:20;;;;;;;;;;;14.80;99.90;;;;;;5093388;28;20007;-76
2022/06/25 09:58:47;;;;;;;;;;;14.80;99.90;;;;;;5093375;28;19943;-76
2022/06/25 10:01:18;;;;;;;;;;;14.70;99.90;;;;;;5093318;28;19939;-75
2022/06/25 10:03:45;;;;;;;;;;;14.70;99.90;;;;;;5092971;28;19908;-76
2022/06/25 10:06:13;;;;;;;;;;;14.70;99.90;;;;;;5093117;28;19912;-75
2022/06/25 10:08:41;;;;;;;;;;;14.70;99.90;;;;;;5093159;28;20007;-75
2022/06/25 10:11:10;;;;;;;;;;;14.70;99.90;;;;;;5093208;28;19908;-76
2022/06/25 10:13:37;;;;;;;;;;;14.70;99.90;;;;;;5092809;28;19914;-74
2022/06/25 10:16:04;;;;;;;;;;;14.60;99.90;;;;;;5092957;28;19969;-75
2022/06/25 10:18:32;;;;;;;;;;;14.60;99.90;;;;;;5092941;28;19999;-75
2022/06/25 10:20:58;;;;;;;;;;;14.70;99.90;;;;;;5092926;28;19916;-75
2022/06/25 10:23:25;;;;;;;;;;;14.60;99.90;;;;;;5092986;28;19912;-75
2022/06/25 10:25:52;;;;;;;;;;;14.60;99.90;;;;;;5092612;28;19908;-75
2022/06/25 10:28:26;;;;;;;;;;;14.50;99.90;;;;;;5092648;28;19908;-76
2022/06/25 10:30:56;;;;;;;;;;;14.50;99.90;;;;;;5093018;28;19976;-75
2022/06/25 10:33:27;;;;;;;;;;;14.50;99.90;;;;;;5092830;28;20343;-75
2022/06/25 10:35:58;;;;;;;;;;;14.50;99.90;;;;;;5092552;28;19916;-75
2022/06/25 10:38:25;;;;;;;;;;;14.50;99.90;;;;;;5096071;28;19923;-76
2022/06/25 10:40:58;;;;;;;;;;;14.50;99.90;;;;;;5096898;28;20278;-75
2022/06/25 10:43:44;;;;;;;;;;;14.40;99.90;;;;;;5096800;28;20369;-75
2022/06/25 10:46:31;;;;;;;;;;;14.40;99.90;;;;;;5096760;28;19965;-76
2022/06/25 10:49:07;;;;;;;;;;;14.50;99.90;;;;;;5096654;28;20015;-75
2022/06/25 10:51:54;;;;;;;;;;;14.40;99.90;;;;;;5096213;28;19908;-75
2022/06/25 10:54:26;;;;;;;;;;;14.40;99.90;;;;;;5096167;28;19920;-76
2022/06/25 10:56:58;;;;;;;;;;;14.40;99.90;;;;;;5096624;28;20337;-75
2022/06/25 10:59:45;;;;;;;;;;;14.40;99.90;;;;;;5096572;28;19930;-73
2022/06/25 11:02:12;;;;;;;;;;;14.40;99.90;;;;;;5096536;28;19912;-75
2022/06/25 11:04:47;;;;;;;;;;;14.40;99.90;;;;;;5096213;28;19914;-75
2022/06/25 11:07:15;;;;;;;;;;;14.40;99.90;;;;;;5096294;28;19930;-76
2022/06/25 11:09:52;;;;;;;;;;;14.40;99.90;;;;;;5096065;28;19935;-75
2022/06/25 11:12:19;;;;;;;;;;;14.30;99.90;;;;;;5096344;28;19954;-76
2022/06/25 11:14:49;;;;;;;;;;;14.30;99.90;;;;;;5096087;28;19927;-75
2022/06/25 11:17:16;;;;;;;;;;;14.20;99.90;;;;;;5096218;28;19908;-76
2022/06/25 11:19:43;;;;;;;;;;;14.20;99.90;;;;;;5095976;28;19908;-74
2022/06/25 11:22:09;;;;;;;;;;;14.10;99.90;;;;;;5095999;28;19915;-73
2022/06/25 11:28:47;;;;;;;;;;;14.00;99.90;;;;;;5096082;28;19908;-76
2022/06/25 11:30:12;;;;;;;;;;;14.00;99.90;;;;;;5096349;28;19915;-75
2022/06/25 11:32:42;;;;;;;;;;;14.00;99.90;;;;;;5095972;28;20452;-76
2022/06/25 11:35:09;;;;;;;;;;;14.00;99.90;;;;;;5095807;28;19912;-76
2022/06/25 11:37:35;;;;;;;;;;;13.90;99.90;;;;;;5095560;28;19990;-75
2022/06/25 11:40:02;;;;;;;;;;;13.90;99.90;;;;;;5095807;28;19934;-75
2022/06/25 11:42:32;;;;;;;;;;;13.90;99.90;;;;;;5095847;28;19908;-75
2022/06/25 11:44:59;;;;;;;;;;;13.90;99.90;;;;;;5095528;28;20313;-76
2022/06/25 11:47:26;;;;;;;;;;;13.90;99.90;;;;;;5094084;28;19908;-76
2022/06/25 11:49:54;;;;;;;;;;;13.90;99.90;;;;;;5095478;28;20321;-75
2022/06/25 11:52:22;;;;;;;;;;;13.90;99.90;;;;;;5095552;28;19961;-75
2022/06/25 11:54:49;;;;;;;;;;;13.90;99.90;;;;;;5095286;28;19920;-75
2022/06/25 11:57:17;;;;;;;;;;;13.90;99.90;;;;;;5095596;28;20354;-74
2022/06/25 11:59:44;;;;;;;;;;;13.90;99.90;;;;;;5095289;28;20285;-74
2022/06/25 12:02:11;;;;;;;;;;;13.90;99.90;;;;;;5095355;28;20305;-74
2022/06/25 12:05:04;;;;;;;;;;;13.90;99.90;;;;;;5095340;28;19908;-77
2022/06/25 12:07:32;;;;;;;;;;;13.90;99.90;;;;;;5093712;28;19916;-74
2022/06/25 12:10:00;;;;;;;;;;;14.00;99.90;;;;;;5095150;28;19995;-75
2022/06/25 12:12:26;;;;;;;;;;;14.00;99.90;;;;;;5095272;28;19908;-74
2022/06/25 12:14:54;;;;;;;;;;;13.90;99.90;;;;;;5095109;28;19919;-75
2022/06/25 12:17:21;;;;;;;;;;;13.90;99.90;;;;;;5095112;28;20405;-75
2022/06/25 12:19:52;;;;;;;;;;;14.00;99.90;;;;;;5094981;28;19938;-75
2022/06/25 12:22:29;;;;;;;;;;;13.90;99.90;;;;;;5094942;28;19915;-75
2022/06/25 12:24:56;;;;;;;;;;;13.90;99.90;;;;;;5095222;28;19940;-76
2022/06/25 12:27:24;;;;;;;;;;;13.90;99.90;;;;;;5095077;28;20282;-76
2022/06/25 12:29:53;;;;;;;;;;;13.90;99.90;;;;;;5094808;28;19908;-76
2022/06/25 12:32:20;;;;;;;;;;;13.90;99.90;;;;;;5093621;28;20394;-77
2022/06/25 12:34:47;;;;;;;;;;;13.90;99.90;;;;;;5094772;28;19916;-74
2022/06/25 12:37:30;;;;;;;;;;;13.90;99.90;;;;;;5094615;28;19948;-77
2022/06/25 12:39:58;;;;;;;;;;;13.90;99.90;;;;;;5094693;28;20259;-76
2022/06/25 12:42:25;;;;;;;;;;;13.90;99.90;;;;;;5094668;28;19993;-76
2022/06/25 12:44:52;;;;;;;;;;;13.90;99.90;;;;;;5094585;28;19912;-76
2022/06/25 12:47:19;;;;;;;;;;;13.90;99.90;;;;;;5094781;28;20370;-77
2022/06/25 12:49:50;;;;;;;;;;;13.90;99.90;;;;;;5094293;28;19998;-75
2022/06/25 12:52:19;;;;;;;;;;;13.90;99.90;;;;;;5094426;28;19954;-75
2022/06/25 12:54:53;;;;;;;;;;;13.90;99.90;;;;;;5094270;28;19982;-76
2022/06/25 12:57:20;;;;;;;;;;;13.90;99.90;;;;;;5094460;28;20011;-76
2022/06/25 12:59:47;;;;;;;;;;;13.80;99.90;;;;;;5093602;28;19912;-75
2022/06/25 13:02:14;;;;;;;;;;;13.80;99.90;;;;;;5094402;28;20362;-75
2022/06/25 13:04:42;;;;;;;;;;;13.80;99.90;;;;;;5094588;28;20390;-75
2022/06/25 13:07:11;;;;;;;;;;;13.80;99.90;;;;;;5094278;28;19961;-76
2022/06/25 13:09:39;;;;;;;;;;;13.80;99.90;;;;;;5094059;28;19908;-75
2022/06/25 13:12:06;;;;;;;;;;;13.80;99.90;;;;;;5093981;28;19912;-75
2022/06/25 13:14:33;;;;;;;;;;;13.80;99.90;;;;;;5094122;28;19915;-75
2022/06/25 13:16:59;;;;;;;;;;;13.80;99.90;;;;;;5094219;28;19908;-75
2022/06/25 13:19:26;;;;;;;;;;;13.80;99.90;;;;;;5094112;28;19908;-75
2022/06/25 13:21:53;;;;;;;;;;;13.80;99.90;;;;;;5093670;28;19916;-75
2022/06/25 13:24:20;;;;;;;;;;;13.80;99.90;;;;;;5093884;28;19908;-75
2022/06/25 13:26:46;;;;;;;;;;;13.80;99.90;;;;;;5093857;28;19991;-75
2022/06/25 13:29:13;;;;;;;;;;;13.80;99.90;;;;;;5093918;28;19914;-75
2022/06/25 13:31:40;;;;;;;;;;;13.80;99.90;;;;;;5093646;28;19911;-74
2022/06/25 13:34:07;;;;;;;;;;;13.80;99.90;;;;;;5093709;28;19916;-75
2022/06/25 13:36:34;;;;;;;;;;;13.80;99.90;;;;;;5093664;28;19924;-77
2022/06/25 13:39:01;;;;;;;;;;;13.80;99.90;;;;;;5093640;28;19908;-77
2022/06/25 13:41:28;;;;;;;;;;;13.70;99.90;;;;;;5093544;28;19908;-75
2022/06/25 13:43:56;;;;;;;;;;;13.80;99.90;;;;;;5093426;28;19950;-77
2022/06/25 13:46:24;;;;;;;;;;;13.80;99.90;;;;;;5093538;28;19908;-76
2022/06/25 13:48:50;;;;;;;;;;;13.70;99.90;;;;;;5093559;28;20051;-76
2022/06/25 13:51:17;;;;;;;;;;;13.70;99.90;;;;;;5093444;28;19918;-77
2022/06/25 13:53:44;;;;;;;;;;;13.60;99.90;;;;;;5093116;28;19908;-75
2022/06/25 13:56:11;;;;;;;;;;;13.60;99.90;;;;;;5093475;28;19920;-75
2022/06/25 13:58:38;;;;;;;;;;;13.60;99.90;;;;;;5093438;28;20390;-75
2022/06/25 14:01:05;;;;;;;;;;;13.60;99.90;;;;;;5093447;28;20376;-75
2022/06/25 14:03:32;;;;;;;;;;;13.60;99.90;;;;;;5093259;28;20351;-75
2022/06/25 14:05:58;;;;;;;;;;;13.60;99.90;;;;;;5093376;28;19908;-75
2022/06/25 14:08:25;;;;;;;;;;;13.60;99.90;;;;;;5093383;28;20354;-75
2022/06/25 14:10:52;;;;;;;;;;;13.70;99.90;;;;;;5094171;28;19912;-75
2022/06/25 14:13:19;;;;;;;;;;;13.70;99.90;;;;;;5097526;28;19908;-75
2022/06/25 14:15:46;;;;;;;;;;;13.70;99.90;;;;;;5097366;28;20011;-75
2022/06/25 14:18:12;;;;;;;;;;;13.70;99.90;;;;;;5097538;28;19950;-76
2022/06/25 14:20:39;;;;;;;;;;;13.60;99.90;;;;;;5097309;28;19908;-75
2022/06/25 14:23:06;;;;;;;;;;;13.60;99.90;;;;;;5097420;28;20351;-75
2022/06/25 14:25:32;;;;;;;;;;;13.60;99.90;;;;;;5097251;28;19951;-74
2022/06/25 14:28:00;;;;;;;;;;;13.60;99.90;;;;;;5097324;28;19908;-75
2022/06/25 14:30:27;;;;;;;;;;;13.50;99.90;;;;;;5097232;28;19908;-74
2022/06/25 14:32:54;;;;;;;;;;;13.50;99.90;;;;;;5097212;28;20374;-75
2022/06/25 14:35:21;;;;;;;;;;;13.60;99.90;;;;;;5096794;28;20358;-75